Time;durP1;ratioP1;P1;durP2;ratioP2;P2;SDS_P1;SDS_P2;PMS_P1;PMS_P2;Temp;Humidity;BMP_temperature;BMP_pressure;BME280_temperature;BME280_humidity;BME280_pressure;Samples;Min_cycle;Max_cycle;Signal;HPM_P1;HPM_P2
2022/07/15 00:01:52;;;;;;;6.53;2.38;;;;;;;-148.22;100.00;64452.44;5018458;28;20063;-56
2022/07/15 00:04:20;;;;;;;6.30;2.50;;;;;;;-148.22;100.00;64452.44;5023613;28;20065;-54
2022/07/15 00:06:46;;;;;;;5.80;2.20;;;;;;;-148.22;100.00;64452.44;5024089;28;20049;-56
2022/07/15 00:09:13;;;;;;;4.28;2.28;;;;;;;-148.22;100.00;64452.44;5023740;28;20048;-51
2022/07/15 00:11:39;;;;;;;4.45;2.50;;;;;;;-148.22;100.00;64452.44;5021511;28;20524;-54
2022/07/15 00:14:06;;;;;;;4.65;2.22;;;;;;;-148.22;100.00;64452.44;5021998;28;20049;-55
2022/07/15 00:16:32;;;;;;;6.13;2.53;;;;;;;-148.22;100.00;64452.44;5022502;28;20416;-56
2022/07/15 00:18:59;;;;;;;4.68;2.30;;;;;;;-148.22;100.00;64452.44;5025272;28;20041;-54
2022/07/15 00:21:26;;;;;;;3.95;2.08;;;;;;;-148.22;100.00;64452.44;5023065;28;20045;-56
2022/07/15 00:23:52;;;;;;;4.70;2.35;;;;;;;-148.22;100.00;64452.44;5018188;28;20136;-52
2022/07/15 00:26:19;;;;;;;6.25;2.50;;;;;;;-148.22;100.00;64452.44;5022974;28;20037;-53
2022/07/15 00:28:45;;;;;;;4.80;2.25;;;;;;;-148.22;100.00;64452.44;5024249;28;20040;-52
2022/07/15 00:31:13;;;;;;;5.95;2.50;;;;;;;-148.22;100.00;64452.44;5023732;28;20041;-51
2022/07/15 00:33:40;;;;;;;4.60;2.38;;;;;;;-148.22;100.00;64452.44;5018261;28;20044;-54
2022/07/15 00:36:07;;;;;;;7.05;2.72;;;;;;;-148.22;100.00;64452.44;5018800;28;20068;-53
2022/07/15 00:38:34;;;;;;;5.60;2.90;;;;;;;-148.22;100.00;64452.44;5023561;28;20037;-52
2022/07/15 00:41:00;;;;;;;8.00;2.80;;;;;;;-148.22;100.00;64452.44;5020349;28;20055;-52
2022/07/15 00:43:27;;;;;;;4.57;2.50;;;;;;;-148.22;100.00;64452.44;5020509;28;20041;-51
2022/07/15 00:45:53;;;;;;;6.25;2.63;;;;;;;-148.22;100.00;64452.44;5012798;28;20049;-52
2022/07/15 00:48:20;;;;;;;7.38;2.40;;;;;;;-148.22;100.00;64452.44;5022717;28;20413;-56
2022/07/15 00:50:48;;;;;;;6.57;2.50;;;;;;;-148.22;100.00;64452.44;5020370;28;20045;-56
2022/07/15 00:53:19;;;;;;;5.07;2.55;;;;;;;-148.22;100.00;64452.44;5023203;28;20049;-52
2022/07/15 00:55:47;;;;;;;5.28;2.63;;;;;;;-148.22;100.00;64452.44;5022117;28;20497;-53
2022/07/15 00:58:17;;;;;;;5.97;2.40;;;;;;;-148.22;100.00;64452.44;5023887;28;20277;-53
2022/07/15 01:00:46;;;;;;;6.65;2.42;;;;;;;-148.22;100.00;64452.44;5022168;28;20410;-56
2022/07/15 01:03:15;;;;;;;5.82;2.67;;;;;;;-148.22;100.00;64452.44;5022436;28;20054;-54
2022/07/15 01:05:43;;;;;;;4.63;2.30;;;;;;;-148.22;100.00;64452.44;5022862;28;20052;-52
2022/07/15 01:08:10;;;;;;;4.60;2.53;;;;;;;-148.22;100.00;64452.44;5025243;28;20045;-56
2022/07/15 01:10:39;;;;;;;4.55;2.10;;;;;;;-148.22;100.00;64452.44;5017403;28;20040;-56
2022/07/15 01:13:06;;;;;;;3.45;2.03;;;;;;;-148.22;100.00;64452.44;5018066;28;20053;-54
2022/07/15 01:15:33;;;;;;;5.57;2.67;;;;;;;-148.22;100.00;64452.44;5020465;28;20069;-56
2022/07/15 01:18:02;;;;;;;5.05;2.47;;;;;;;-148.22;100.00;64452.44;5023152;28;20053;-52
2022/07/15 01:20:32;;;;;;;;;;;;;;;-148.22;100.00;64452.44;5016442;28;20045;-51
2022/07/15 01:23:00;;;;;;;4.30;2.50;;;;;;;-148.22;100.00;64452.44;5018913;28;19947;-53
2022/07/15 01:25:35;;;;;;;4.68;2.30;;;;;;;-148.22;100.00;64452.44;5023537;28;20604;-52
2022/07/15 01:28:08;;;;;;;9.98;2.70;;;;;;;-148.22;100.00;64452.44;5026450;28;20095;-56
2022/07/15 01:30:36;;;;;;;4.90;2.20;;;;;;;-148.22;100.00;64452.44;5026353;28;20041;-56
2022/07/15 01:33:04;;;;;;;4.22;2.30;;;;;;;-148.22;100.00;64452.44;5021079;28;20208;-53
2022/07/15 01:35:31;;;;;;;5.72;2.38;;;;;;;-148.22;100.00;64452.44;5023011;28;20072;-52
2022/07/15 01:37:58;;;;;;;4.15;2.38;;;;;;;-148.22;100.00;64452.44;5028307;28;20049;-51
2022/07/15 01:40:25;;;;;;;5.53;2.67;;;;;;;-148.22;100.00;64452.44;5026047;28;20048;-55
2022/07/15 01:42:52;;;;;;;4.75;2.40;;;;;;;-148.22;100.00;64452.44;5023490;28;20057;-51
2022/07/15 01:45:19;;;;;;;4.55;2.50;;;;;;;-148.22;100.00;64452.44;5026543;28;20067;-53
2022/07/15 01:47:49;;;;;;;5.00;2.50;;;;;;;-148.22;100.00;64452.44;5021086;28;20049;-53
2022/07/15 01:50:37;;;;;;;8.45;2.67;;;;;;;-148.22;100.00;64452.44;5020837;28;20128;-55
2022/07/15 01:53:10;;;;;;;5.65;2.75;;;;;;;-148.22;100.00;64452.44;5023434;28;20064;-53
2022/07/15 01:55:37;;;;;;;5.93;2.97;;;;;;;-148.22;100.00;64452.44;5021344;28;20060;-52
2022/07/15 01:58:05;;;;;;;6.25;2.83;;;;;;;-148.22;100.00;64452.44;5014039;28;20046;-53
2022/07/15 02:00:32;;;;;;;5.40;3.40;;;;;;;-148.22;100.00;64452.44;5017159;28;20061;-50
2022/07/15 02:02:59;;;;;;;6.07;2.33;;;;;;;-148.22;100.00;64452.44;5017681;28;20050;-55
2022/07/15 02:05:26;;;;;;;5.53;2.33;;;;;;;-148.22;100.00;64452.44;5024750;28;20040;-55
2022/07/15 02:07:54;;;;;;;6.03;2.85;;;;;;;-148.22;100.00;64452.44;5022483;28;20053;-53
2022/07/15 02:10:22;;;;;;;7.20;2.63;;;;;;;-148.22;100.00;64452.44;5024079;28;20100;-52
2022/07/15 02:12:48;;;;;;;6.85;2.65;;;;;;;-148.22;100.00;64452.44;5027784;28;20037;-53
2022/07/15 02:15:18;;;;;;;4.30;2.20;;;;;;;-148.22;100.00;64452.44;5024964;28;20560;-50
2022/07/15 02:17:52;;;;;;;9.07;2.63;;;;;;;-148.22;100.00;64452.44;5024120;28;20052;-51
2022/07/15 02:20:25;;;;;;;4.40;2.67;;;;;;;-148.22;100.00;64452.44;5021897;28;20041;-51
2022/07/15 02:22:57;;;;;;;8.43;3.03;;;;;;;-148.22;100.00;64452.44;5026714;28;20045;-50
2022/07/15 02:25:30;;;;;;;5.03;2.47;;;;;;;-148.22;100.00;64452.44;5024996;28;20045;-53
2022/07/15 02:28:02;;;;;;;4.90;2.17;;;;;;;-148.22;100.00;64452.44;5024320;28;20416;-51
2022/07/15 02:30:33;;;;;;;5.88;2.30;;;;;;;-148.22;100.00;64452.44;5019007;28;20040;-52
2022/07/15 02:33:00;;;;;;;7.50;2.50;;;;;;;-148.22;100.00;64452.44;5024428;28;20038;-52
2022/07/15 02:35:28;;;;;;;5.60;2.60;;;;;;;-148.22;100.00;64452.44;5022207;28;20045;-54
2022/07/15 02:37:55;;;;;;;4.90;2.50;;;;;;;-148.22;100.00;64452.44;5027622;28;20498;-51
2022/07/15 02:40:23;;;;;;;3.95;2.33;;;;;;;-148.22;100.00;64452.44;5023559;28;20068;-50
2022/07/15 02:42:53;;;;;;;5.22;2.60;;;;;;;-148.22;100.00;64452.44;5026001;28;20148;-52
2022/07/15 02:45:21;;;;;;;4.68;2.30;;;;;;;-148.22;100.00;64452.44;5019716;28;20524;-50
2022/07/15 02:47:49;;;;;;;5.30;2.53;;;;;;;-148.22;100.00;64452.44;5023923;28;20075;-53
2022/07/15 02:50:23;;;;;;;5.53;2.47;;;;;;;-148.22;100.00;64452.44;5026759;28;20065;-50
2022/07/15 02:52:49;;;;;;;5.07;2.30;;;;;;;-148.22;100.00;64452.44;5021957;28;20115;-50
2022/07/15 02:55:17;;;;;;;6.28;2.42;;;;;;;-148.22;100.00;64452.44;5024645;28;20037;-49
2022/07/15 02:57:43;;;;;;;5.97;2.65;;;;;;;-148.22;100.00;64452.44;5025516;28;20497;-56
2022/07/15 03:00:13;;;;;;;4.43;2.30;;;;;;;-148.22;100.00;64452.44;5025600;28;20322;-50
2022/07/15 03:02:41;;;;;;;4.82;2.50;;;;;;;-148.22;100.00;64452.44;5020570;28;20057;-52
2022/07/15 03:05:11;;;;;;;4.75;2.63;;;;;;;-148.22;100.00;64452.44;5024532;28;20041;-53
2022/07/15 03:07:40;;;;;;;5.93;2.15;;;;;;;-148.22;100.00;64452.44;5014559;28;20034;-51
2022/07/15 03:10:09;;;;;;;4.85;2.67;;;;;;;-148.22;100.00;64452.44;5025464;28;20170;-53
2022/07/15 03:12:36;;;;;;;4.25;2.22;;;;;;;-148.22;100.00;64452.44;5026285;28;20084;-55
2022/07/15 03:15:04;;;;;;;10.65;3.05;;;;;;;-148.22;100.00;64452.44;5025874;28;20045;-53
2022/07/15 03:17:34;;;;;;;8.32;3.10;;;;;;;-148.22;100.00;64452.44;5022939;28;19921;-55
2022/07/15 03:20:00;;;;;;;5.47;2.85;;;;;;;-148.22;100.00;64452.44;5023157;28;20037;-54
2022/07/15 03:22:29;;;;;;;5.28;2.75;;;;;;;-148.22;100.00;64452.44;5008563;28;20052;-54
2022/07/15 03:24:56;;;;;;;4.78;2.60;;;;;;;-148.22;100.00;64452.44;5020426;28;20050;-51
2022/07/15 03:27:23;;;;;;;7.82;2.42;;;;;;;-148.22;100.00;64452.44;5023764;28;20049;-55
2022/07/15 03:29:50;;;;;;;4.57;2.85;;;;;;;-148.22;100.00;64452.44;5022404;28;20128;-51
2022/07/15 03:32:19;;;;;;;4.90;2.75;;;;;;;-148.22;100.00;64452.44;5022875;28;20464;-52
2022/07/15 03:34:50;;;;;;;6.68;2.65;;;;;;;-148.22;100.00;64452.44;5011016;28;20570;-53
2022/07/15 03:37:21;;;;;;;4.63;2.63;;;;;;;-148.22;100.00;64452.44;5019681;28;20045;-55
2022/07/15 03:39:48;;;;;;;5.88;3.40;;;;;;;-148.22;100.00;64452.44;5021978;28;20436;-53
2022/07/15 03:42:15;;;;;;;7.05;2.35;;;;;;;-148.22;100.00;64452.44;5021773;28;20041;-51
2022/07/15 03:44:43;;;;;;;5.15;2.67;;;;;;;-148.22;100.00;64452.44;5020208;28;20053;-55
2022/07/15 03:47:09;;;;;;;6.53;2.58;;;;;;;-148.22;100.00;64452.44;5020152;28;20517;-55
2022/07/15 03:49:36;;;;;;;3.92;2.13;;;;;;;-148.22;100.00;64452.44;5023210;28;20049;-52
2022/07/15 03:52:03;;;;;;;6.10;2.80;;;;;;;-148.22;100.00;64452.44;5018710;28;20074;-53
2022/07/15 03:54:31;;;;;;;5.28;2.30;;;;;;;-148.22;100.00;64452.44;5017872;28;20095;-52
2022/07/15 03:56:59;;;;;;;5.60;3.15;;;;;;;-148.22;100.00;64452.44;5019510;28;20041;-55
2022/07/15 03:59:26;;;;;;;7.13;3.25;;;;;;;-148.22;100.00;64452.44;5024598;28;20056;-54
2022/07/15 04:01:53;;;;;;;5.82;3.05;;;;;;;-148.22;100.00;64452.44;5022663;28;20041;-51
2022/07/15 04:04:20;;;;;;;6.20;2.78;;;;;;;-148.22;100.00;64452.44;5021488;28;20045;-52
2022/07/15 04:06:46;;;;;;;4.97;2.75;;;;;;;-148.22;100.00;64452.44;5022957;28;20081;-53
2022/07/15 04:09:13;;;;;;;5.00;2.90;;;;;;;-148.22;100.00;64452.44;5030661;28;20037;-54
2022/07/15 04:11:43;;;;;;;6.13;3.13;;;;;;;-148.22;100.00;64452.44;5029566;28;20041;-54
2022/07/15 04:14:11;;;;;;;6.60;3.05;;;;;;;-148.22;100.00;64452.44;5019490;28;20917;-55
2022/07/15 04:16:40;;;;;;;5.85;2.72;;;;;;;-148.22;100.00;64452.44;5022820;28;20394;-55
2022/07/15 04:19:27;;;;;;;5.85;2.92;;;;;;;-148.22;100.00;64452.44;5010971;28;20057;-54
2022/07/15 04:21:57;;;;;;;5.95;2.78;;;;;;;-148.22;100.00;64452.44;5023177;28;20292;-51
2022/07/15 04:24:24;;;;;;;3.92;2.58;;;;;;;-148.22;100.00;64452.44;5015924;28;20041;-55
2022/07/15 04:26:52;;;;;;;6.75;3.10;;;;;;;-148.22;100.00;64452.44;5015569;28;20045;-55
2022/07/15 04:29:19;;;;;;;6.28;3.10;;;;;;;-148.22;100.00;64452.44;5019041;28;20034;-56
2022/07/15 04:31:45;;;;;;;5.80;3.08;;;;;;;-148.22;100.00;64452.44;5011877;28;20053;-54
2022/07/15 04:34:18;;;;;;;7.72;2.80;;;;;;;-148.22;100.00;64452.44;5018565;28;20052;-52
2022/07/15 04:36:46;;;;;;;6.07;2.65;;;;;;;-148.22;100.00;64452.44;5019857;28;20061;-55
2022/07/15 04:39:13;;;;;;;8.35;2.75;;;;;;;-148.22;100.00;64452.44;5012397;28;20040;-55
2022/07/15 04:41:40;;;;;;;4.70;2.60;;;;;;;-148.22;100.00;64452.44;5015496;28;20048;-49
2022/07/15 04:44:07;;;;;;;6.05;2.50;;;;;;;-148.22;100.00;64452.44;5016385;28;20496;-53
2022/07/15 04:46:33;;;;;;;6.63;2.70;;;;;;;-148.22;100.00;64452.44;5015723;28;20072;-53
2022/07/15 04:52:04;;;;;;;5.18;2.42;;;;;;;-148.22;100.00;64452.44;5022411;28;20068;-55
2022/07/15 04:54:33;;;;;;;3.90;2.40;;;;;;;-148.22;100.00;64452.44;5021179;28;20045;-52
2022/07/15 04:57:01;;;;;;;7.20;2.50;;;;;;;-148.22;100.00;64452.44;5019260;28;20049;-50
2022/07/15 04:59:27;;;;;;;5.70;2.45;;;;;;;-148.22;100.00;64452.44;5028699;28;20044;-51
2022/07/15 05:01:54;;;;;;;6.88;3.03;;;;;;;-148.22;100.00;64452.44;5026862;28;20045;-50
2022/07/15 05:04:33;;;;;;;6.18;3.17;;;;;;;-148.22;100.00;64452.44;5009988;28;20049;-54
2022/07/15 05:07:00;;;;;;;7.00;2.40;;;;;;;-148.22;100.00;64452.44;5014358;28;20052;-52
2022/07/15 05:09:29;;;;;;;4.05;2.15;;;;;;;-148.22;100.00;64452.44;5023323;28;20148;-55
2022/07/15 05:11:56;;;;;;;4.30;2.20;;;;;;;-148.22;100.00;64452.44;5019738;28;20115;-56
2022/07/15 05:14:22;;;;;;;7.05;2.08;;;;;;;-148.22;100.00;64452.44;5009847;28;20045;-53
2022/07/15 05:16:49;;;;;;;6.32;2.33;;;;;;;-148.22;100.00;64452.44;5016137;28;20042;-56
2022/07/15 05:19:16;;;;;;;6.95;3.15;;;;;;;-148.22;100.00;64452.44;5021890;28;20052;-54
2022/07/15 05:21:43;;;;;;;6.53;2.30;;;;;;;-148.22;100.00;64452.44;5020599;28;20073;-53
2022/07/15 05:24:10;;;;;;;6.20;2.97;;;;;;;-148.22;100.00;64452.44;5011527;28;20041;-52
2022/07/15 05:26:55;;;;;;;3.85;2.33;;;;;;;-148.22;100.00;64452.44;5007494;28;20369;-54
2022/07/15 05:29:21;;;;;;;4.82;2.30;;;;;;;-148.22;100.00;64452.44;5006980;28;20041;-54
2022/07/15 05:31:51;;;;;;;6.60;2.35;;;;;;;-148.22;100.00;64452.44;5022431;28;20048;-52
2022/07/15 05:34:18;;;;;;;4.68;2.35;;;;;;;-148.22;100.00;64452.44;5022417;28;20107;-56
2022/07/15 05:36:44;;;;;;;5.43;2.42;;;;;;;-148.22;100.00;64452.44;5023398;28;20501;-55
2022/07/15 05:39:14;;;;;;;4.53;2.40;;;;;;;-148.22;100.00;64452.44;5015747;28;20092;-56
2022/07/15 05:41:41;;;;;;;4.70;2.20;;;;;;;-148.22;100.00;64452.44;5012432;28;20038;-56
2022/07/15 05:44:13;;;;;;;6.13;2.28;;;;;;;-148.22;100.00;64452.44;5021441;28;20432;-51
2022/07/15 05:46:45;;;;;;;6.68;2.72;;;;;;;-148.22;100.00;64452.44;5014436;28;20046;-52
2022/07/15 05:49:12;;;;;;;6.47;2.28;;;;;;;-148.22;100.00;64452.44;5017827;28;20049;-55
2022/07/15 05:51:39;;;;;;;4.30;2.63;;;;;;;-148.22;100.00;64452.44;5021268;28;20545;-54
2022/07/15 05:54:07;;;;;;;3.13;1.85;;;;;;;-148.22;100.00;64452.44;5029191;28;20045;-55
2022/07/15 05:56:34;;;;;;;5.75;2.10;;;;;;;-148.22;100.00;64452.44;5019867;28;20045;-54
2022/07/15 05:59:01;;;;;;;5.18;1.92;;;;;;;-148.22;100.00;64452.44;5018983;28;20151;-54
2022/07/15 06:01:32;;;;;;;4.03;1.88;;;;;;;-148.22;100.00;64452.44;5019769;28;20053;-54
2022/07/15 06:03:59;;;;;;;4.85;1.85;;;;;;;-148.22;100.00;64452.44;5021841;28;20057;-53
2022/07/15 06:06:25;;;;;;;7.90;2.45;;;;;;;-148.22;100.00;64452.44;5020922;28;20041;-52
2022/07/15 06:08:52;;;;;;;5.05;1.98;;;;;;;-148.22;100.00;64452.44;5013369;28;20045;-67
2022/07/15 06:11:19;;;;;;;5.18;2.08;;;;;;;-148.22;100.00;64452.44;5019313;28;20049;-67
2022/07/15 06:13:46;;;;;;;6.22;1.90;;;;;;;-148.22;100.00;64452.44;5015744;28;20041;-68
2022/07/15 06:16:13;;;;;;;5.63;1.90;;;;;;;-148.22;100.00;64452.44;5019360;28;20049;-68
2022/07/15 06:18:42;;;;;;;2.92;1.45;;;;;;;-148.22;100.00;64452.44;5038006;28;20052;-68
2022/07/15 06:21:09;;;;;;;5.47;1.67;;;;;;;-148.22;100.00;64452.44;5037356;28;20171;-68
2022/07/15 06:23:36;;;;;;;6.43;1.50;;;;;;;-148.22;100.00;64452.44;5010792;28;20476;-68
2022/07/15 06:26:02;;;;;;;4.20;1.45;;;;;;;-148.22;100.00;64452.44;5022073;28;20046;-67
2022/07/15 06:28:29;;;;;;;3.05;1.60;;;;;;;-148.22;100.00;64452.44;5025269;28;20072;-67
2022/07/15 06:30:56;;;;;;;4.18;1.60;;;;;;;-148.22;100.00;64452.44;5023629;28;20073;-66
2022/07/15 06:33:24;;;;;;;4.20;1.60;;;;;;;-148.22;100.00;64452.44;5023448;28;20341;-67
2022/07/15 06:35:50;;;;;;;3.75;1.35;;;;;;;-148.22;100.00;64452.44;5012969;28;20045;-67
2022/07/15 06:38:17;;;;;;;4.65;1.63;;;;;;;-148.22;100.00;64452.44;5008933;28;20057;-66
2022/07/15 06:40:44;;;;;;;4.03;1.30;;;;;;;-148.22;100.00;64452.44;5038480;28;20076;-67
2022/07/15 06:43:11;;;;;;;4.20;1.42;;;;;;;-148.22;100.00;64452.44;5017302;28;20115;-66
2022/07/15 06:45:58;;;;;;;3.13;1.30;;;;;;;-148.22;100.00;64452.44;5011076;28;20072;-66
2022/07/15 06:48:25;;;;;;;4.72;1.38;;;;;;;-148.22;100.00;64452.44;5017999;28;20185;-67
2022/07/15 06:50:53;;;;;;;3.38;1.30;;;;;;;-148.22;100.00;64452.44;5024370;28;20053;-67
2022/07/15 06:53:20;;;;;;;4.40;1.13;;;;;;;-148.22;100.00;64452.44;5045708;28;20048;-68
2022/07/15 06:55:47;;;;;;;4.93;1.35;;;;;;;-148.22;100.00;64452.44;5035793;28;20056;-67
2022/07/15 06:58:14;;;;;;;4.00;1.33;;;;;;;-148.22;100.00;64452.44;5026591;28;20114;-67
2022/07/15 07:00:40;;;;;;;7.40;2.08;;;;;;;-148.22;100.00;64452.44;5014743;28;20049;-67
2022/07/15 07:03:07;;;;;;;4.75;1.40;;;;;;;-148.22;100.00;64452.44;5025592;28;20064;-66
2022/07/15 07:05:34;;;;;;;6.95;1.30;;;;;;;-148.22;100.00;64452.44;5026141;28;20065;-66
2022/07/15 07:08:02;;;;;;;2.85;1.42;;;;;;;-148.22;100.00;64452.44;5015632;28;20053;-67
2022/07/15 07:10:28;;;;;;;3.75;1.20;;;;;;;-148.22;100.00;64452.44;5027853;28;20046;-66
2022/07/15 07:12:56;;;;;;;4.70;1.38;;;;;;;-148.22;100.00;64452.44;5026439;28;20053;-66
2022/07/15 07:15:23;;;;;;;4.38;1.20;;;;;;;-148.22;100.00;64452.44;5034296;28;20049;-66
2022/07/15 07:17:51;;;;;;;4.03;1.17;;;;;;;-148.22;100.00;64452.44;5042813;28;20049;-66
2022/07/15 07:20:18;;;;;;;3.45;1.40;;;;;;;-148.22;100.00;64452.44;5044771;28;20120;-66
2022/07/15 07:22:45;;;;;;;3.10;1.17;;;;;;;-148.22;100.00;64452.44;5047635;28;20048;-67
2022/07/15 07:25:11;;;;;;;3.08;1.35;;;;;;;-148.22;100.00;64452.44;5028016;28;20084;-66
2022/07/15 07:27:38;;;;;;;4.57;1.30;;;;;;;-148.22;100.00;64452.44;5026430;28;20050;-67
2022/07/15 07:30:05;;;;;;;2.70;1.48;;;;;;;-148.22;100.00;64452.44;5027412;28;20042;-66
2022/07/15 07:32:32;;;;;;;5.75;1.40;;;;;;;-148.22;100.00;64452.44;5025679;28;20057;-66
2022/07/15 07:35:05;;;;;;;3.65;1.50;;;;;;;-148.22;100.00;64452.44;5027325;28;20052;-67
2022/07/15 07:37:37;;;;;;;5.05;1.60;;;;;;;-148.22;100.00;64452.44;5022643;28;20037;-66
2022/07/15 07:40:05;;;;;;;4.18;1.35;;;;;;;-148.22;100.00;64452.44;5022842;28;20161;-66
2022/07/15 07:42:32;;;;;;;6.95;1.70;;;;;;;-148.22;100.00;64452.44;5032293;28;20154;-66
2022/07/15 07:45:00;;;;;;;6.50;1.50;;;;;;;-148.22;100.00;64452.44;5016936;28;20049;-66
2022/07/15 07:47:27;;;;;;;2.83;1.30;;;;;;;-148.22;100.00;64452.44;5016953;28;20153;-66
2022/07/15 07:49:54;;;;;;;7.18;2.20;;;;;;;-148.22;100.00;64452.44;5021336;28;20033;-66
2022/07/15 07:52:20;;;;;;;3.22;1.40;;;;;;;-148.22;100.00;64452.44;5018767;28;20041;-66
2022/07/15 07:54:53;;;;;;;2.90;1.40;;;;;;;-148.22;100.00;64452.44;5022456;28;20046;-66
2022/07/15 07:57:20;;;;;;;4.80;2.17;;;;;;;-148.22;100.00;64452.44;5011746;28;20049;-67
2022/07/15 07:59:46;;;;;;;5.43;1.25;;;;;;;-148.22;100.00;64452.44;5020336;28;20045;-66
2022/07/15 08:02:19;;;;;;;4.50;1.52;;;;;;;-148.22;100.00;64452.44;5014398;28;20580;-66
2022/07/15 08:04:46;;;;;;;7.90;2.75;;;;;;;-148.22;100.00;64452.44;5018680;28;20130;-66
2022/07/15 08:07:13;;;;;;;2.30;1.15;;;;;;;-148.22;100.00;64452.44;5025709;28;20034;-66
2022/07/15 08:09:39;;;;;;;4.50;1.50;;;;;;;-148.22;100.00;64452.44;5017298;28;20280;-66
2022/07/15 08:12:07;;;;;;;4.72;1.75;;;;;;;-148.22;100.00;64452.44;5024067;28;20540;-66
2022/07/15 08:14:34;;;;;;;4.07;1.38;;;;;;;-148.22;100.00;64452.44;5020789;28;20501;-66
2022/07/15 08:17:00;;;;;;;10.13;1.70;;;;;;;-148.22;100.00;64452.44;5024504;28;20095;-66
2022/07/15 08:19:27;;;;;;;5.28;2.00;;;;;;;-148.22;100.00;64452.44;5020018;28;20335;-66
2022/07/15 08:21:54;;;;;;;3.90;1.42;;;;;;;-148.22;100.00;64452.44;5031836;28;20051;-66
2022/07/15 08:24:20;;;;;;;5.15;1.70;;;;;;;-148.22;100.00;64452.44;5024134;28;20073;-66
2022/07/15 08:26:47;;;;;;;3.50;1.52;;;;;;;-148.22;100.00;64452.44;5018776;28;20049;-66
2022/07/15 08:29:14;;;;;;;5.97;1.33;;;;;;;-148.22;100.00;64452.44;5020316;28;20053;-66
2022/07/15 08:31:40;;;;;;;4.07;1.42;;;;;;;-148.22;100.00;64452.44;5023415;28;20033;-66
2022/07/15 08:34:08;;;;;;;5.38;2.33;;;;;;;-148.22;100.00;64452.44;5022925;28;20057;-66
2022/07/15 08:36:34;;;;;;;4.20;1.75;;;;;;;-148.22;100.00;64452.44;5024778;28;20041;-66
2022/07/15 08:39:01;;;;;;;4.15;1.48;;;;;;;-148.22;100.00;64452.44;5014639;28;20042;-66
2022/07/15 08:41:29;;;;;;;3.95;1.40;;;;;;;-148.22;100.00;64452.44;5024331;28;20045;-66
2022/07/15 08:43:55;;;;;;;4.93;1.45;;;;;;;-148.22;100.00;64452.44;5036321;28;20045;-66
2022/07/15 08:46:26;;;;;;;6.10;1.75;;;;;;;-148.22;100.00;64452.44;5015828;28;20618;-66
2022/07/15 08:48:58;;;;;;;3.67;1.50;;;;;;;-148.22;100.00;64452.44;5013644;28;20061;-66
2022/07/15 08:51:26;;;;;;;4.72;1.67;;;;;;;-148.22;100.00;64452.44;5028507;28;20045;-67
2022/07/15 08:53:55;;;;;;;4.30;2.05;;;;;;;-148.22;100.00;64452.44;5026522;28;20053;-66
2022/07/15 08:56:22;;;;;;;4.25;1.40;;;;;;;-148.22;100.00;64452.44;5021809;28;20954;-67
2022/07/15 08:58:48;;;;;;;4.88;1.50;;;;;;;-148.22;100.00;64452.44;5020516;28;20453;-67
2022/07/15 09:01:32;;;;;;;9.40;3.22;;;;;;;-148.22;100.00;64452.44;5018010;28;20051;-66
2022/07/15 09:03:59;;;;;;;4.53;1.60;;;;;;;-148.22;100.00;64452.44;5023389;28;20053;-67
2022/07/15 09:06:35;;;;;;;3.47;1.40;;;;;;;-148.22;100.00;64452.44;5012629;28;20085;-66
2022/07/15 09:09:25;;;;;;;4.07;1.42;;;;;;;-148.22;100.00;64452.44;5032195;28;20045;-67
2022/07/15 09:12:00;;;;;;;4.28;1.50;;;;;;;-148.22;100.00;64452.44;5012732;28;20516;-66
2022/07/15 09:14:41;;;;;;;2.95;1.50;;;;;;;-148.22;100.00;64452.44;5019308;28;20429;-66
2022/07/15 09:17:11;;;;;;;3.53;1.63;;;;;;;-148.22;100.00;64452.44;5022532;28;20100;-66
2022/07/15 09:20:07;;;;;;;4.97;1.70;;;;;;;-148.22;100.00;64452.44;5023510;28;20111;-67
2022/07/15 09:22:58;;;;;;;4.50;1.90;;;;;;;-148.22;100.00;64452.44;5012947;28;20104;-67
2022/07/15 09:25:27;;;;;;;5.28;1.60;;;;;;;-148.22;100.00;64452.44;5022913;28;20064;-67
2022/07/15 09:27:54;;;;;;;4.57;1.30;;;;;;;-148.22;100.00;64452.44;5022098;28;20044;-67
2022/07/15 09:36:13;;;;;;;6.13;1.48;;;;;;;-148.22;100.00;64452.44;5008776;28;20287;-66
2022/07/15 09:38:47;;;;;;;4.22;1.77;;;;;;;-148.22;100.00;64452.44;5013978;28;20454;-66
2022/07/15 09:41:25;;;;;;;4.57;1.70;;;;;;;-148.22;100.00;64452.44;5040667;28;20037;-68
2022/07/15 09:44:14;;;;;;;5.60;1.73;;;;;;;-148.22;100.00;64452.44;5019651;28;20314;-66
2022/07/15 09:46:46;;;;;;;3.17;1.45;;;;;;;-148.22;100.00;64452.44;5014764;28;20058;-67
2022/07/15 09:49:15;;;;;;;3.38;1.42;;;;;;;-148.22;100.00;64452.44;5011662;28;20053;-66
2022/07/15 09:51:47;;;;;;;5.53;2.75;;;;;;;-148.22;100.00;64452.44;5007250;28;20046;-67
2022/07/15 09:54:15;;;;;;;4.97;2.22;;;;;;;-148.22;100.00;64452.44;5024638;28;20124;-67
2022/07/15 09:56:42;;;;;;;6.22;1.45;;;;;;;-148.22;100.00;64452.44;5033563;28;20049;-66
2022/07/15 09:59:09;;;;;;;3.13;1.50;;;;;;;-148.22;100.00;64452.44;5024704;28;20045;-66
2022/07/15 10:01:36;;;;;;;4.38;1.70;;;;;;;-148.22;100.00;64452.44;5023924;28;20042;-66
2022/07/15 10:04:04;;;;;;;4.05;1.30;;;;;;;-148.22;100.00;64452.44;5032300;28;20059;-66
2022/07/15 10:06:35;;;;;;;4.38;1.48;;;;;;;-148.22;100.00;64452.44;5007015;28;20061;-66
2022/07/15 10:09:03;;;;;;;4.95;1.70;;;;;;;-148.22;100.00;64452.44;5017534;28;20041;-66
2022/07/15 10:11:32;;;;;;;3.20;1.60;;;;;;;-148.22;100.00;64452.44;5013259;28;20057;-66
2022/07/15 10:14:53;;;;;;;3.70;1.50;;;;;;;-148.22;100.00;64452.44;5023896;28;20060;-66
2022/07/15 10:17:34;;;;;;;3.88;1.50;;;;;;;-148.22;100.00;64452.44;5003499;28;20049;-66
2022/07/15 10:20:13;;;;;;;4.22;1.48;;;;;;;-148.22;100.00;64452.44;5007952;28;20057;-66
2022/07/15 10:22:58;;;;;;;5.85;1.35;;;;;;;-148.22;100.00;64452.44;5020218;28;20124;-66
2022/07/15 10:25:55;;;;;;;4.75;1.55;;;;;;;-148.22;100.00;64452.44;5026709;28;20042;-67
2022/07/15 10:28:40;;;;;;;4.10;1.90;;;;;;;-148.22;100.00;64452.44;5013624;28;20068;-67
2022/07/15 10:31:15;;;;;;;4.45;1.67;;;;;;;-148.22;100.00;64452.44;5023794;28;20046;-67
2022/07/15 10:33:42;;;;;;;6.00;1.92;;;;;;;-148.22;100.00;64452.44;5026787;28;20048;-67
2022/07/15 10:36:09;;;;;;;3.17;1.67;;;;;;;-148.22;100.00;64452.44;5021536;28;20045;-67
2022/07/15 10:38:38;;;;;;;5.25;1.60;;;;;;;-148.22;100.00;64452.44;5021845;28;20099;-67
2022/07/15 10:41:05;;;;;;;3.10;1.50;;;;;;;-148.22;100.00;64452.44;5025342;28;20083;-67
2022/07/15 10:43:45;;;;;;;4.18;1.70;;;;;;;-148.22;100.00;64452.44;5026766;28;20045;-67
2022/07/15 10:46:17;;;;;;;4.43;1.80;;;;;;;-148.22;100.00;64452.44;5032897;28;20053;-67
2022/07/15 10:48:48;;;;;;;6.60;1.52;;;;;;;-148.22;100.00;64452.44;5007782;28;20089;-67
2022/07/15 10:51:36;;;;;;;5.97;1.40;;;;;;;-148.22;100.00;64452.44;5025918;28;20046;-68
2022/07/15 10:54:06;;;;;;;5.55;1.77;;;;;;;-148.22;100.00;64452.44;5037443;28;20516;-68
2022/07/15 10:56:35;;;;;;;4.03;1.42;;;;;;;-148.22;100.00;64452.44;5025151;28;20049;-68
2022/07/15 10:59:13;;;;;;;4.38;1.77;;;;;;;-148.22;100.00;64452.44;5013426;28;20056;-68
2022/07/15 11:01:45;;;;;;;4.30;1.50;;;;;;;-148.22;100.00;64452.44;5021790;28;20505;-67
2022/07/15 11:04:23;;;;;;;3.40;1.65;;;;;;;-148.22;100.00;64452.44;5024881;28;20098;-67
2022/07/15 11:07:02;;;;;;;4.70;1.80;;;;;;;-148.22;100.00;64452.44;5021393;28;20452;-68
2022/07/15 11:09:48;;;;;;;4.97;2.25;;;;;;;-148.22;100.00;64452.44;5031709;28;20037;-68
2022/07/15 11:12:21;;;;;;;5.15;1.77;;;;;;;-148.22;100.00;64452.44;5028053;28;20042;-68
2022/07/15 11:14:49;;;;;;;5.82;1.50;;;;;;;-148.22;100.00;64452.44;5015199;28;20056;-68
2022/07/15 11:17:22;;;;;;;4.97;1.60;;;;;;;-148.22;100.00;64452.44;5012137;28;20052;-68
2022/07/15 11:19:53;;;;;;;2.95;1.38;;;;;;;-148.22;100.00;64452.44;5014759;28;20049;-68
2022/07/15 11:22:22;;;;;;;5.72;1.65;;;;;;;-148.22;100.00;64452.44;5023752;28;20093;-68
2022/07/15 11:24:48;;;;;;;5.70;1.75;;;;;;;-148.22;100.00;64452.44;5037964;28;20037;-68
2022/07/15 11:27:15;;;;;;;5.97;1.83;;;;;;;-148.22;100.00;64452.44;5017837;28;20048;-68
2022/07/15 11:29:46;;;;;;;3.83;1.80;;;;;;;-148.22;100.00;64452.44;5022396;28;20505;-68